To NAV CANADA Home Page Login to a new session Search on AWWS site Disclaimer Vers la page française équivalente Tips FAQ What's new on the site To the Forecasts and Observations / NOTAM section To "File a Flight Plan" website Publications and other links Update of the User's profile FIC Telephone Numbers My Weather Data Folder Route Weather Data Regional Weather Data Local Weather Data To the Forecasts and Observations / NOTAM section
Request Generated 11/13/2018 at 18:04:42 UTC . Weather information available at that time is displayed.

METAR/TAF

IGLOOLIK/NU    

METAR CYGT 131800Z 01006KT 10SM FEW020 OVC044 M19/M21 A3009 RMK SC2SC6 SLP198=
METAR CYGT 131700Z 01005KT 10SM SCT017 OVC041 M19/M21 A3009 RMK SC3SC5 SLP200=
METAR CYGT 131600Z 01006KT 10SM SCT017 OVC041 M19/M21 A3009 RMK SC3SC5 SLP199=

TAF CYGT 131238Z 1313/1322 VRB03KT P6SM OVC040 TEMPO 1313/1322 4SM
-SN BR SCT015 OVC030
RMK NXT FCST BY 131900Z=
Your time UTC time
Weather data provided by Environment Canada and NAV CANADA